createdAt,value
2023-02-16T00:00:24.138Z,35.17
2023-02-16T00:02:50.942Z,37.72
2023-02-16T00:05:27.930Z,35.65
2023-02-16T00:07:56.410Z,36.42
2023-02-16T00:10:24.207Z,38.75
2023-02-16T00:13:12.469Z,44.15
2023-02-16T00:15:40.197Z,37.25
2023-02-16T00:18:17.852Z,39.70
2023-02-16T00:20:44.903Z,38.70
2023-02-16T00:23:13.027Z,38.90
2023-02-16T00:25:40.120Z,35.17
2023-02-16T00:28:14.606Z,34.65
2023-02-16T00:30:41.618Z,37.42
2023-02-16T00:33:20.575Z,40.30
2023-02-16T00:35:47.963Z,35.72
2023-02-16T00:38:15.086Z,38.70
2023-02-16T00:40:43.074Z,36.22
2023-02-16T00:43:24.045Z,34.95
2023-02-16T00:45:51.233Z,38.40
2023-02-16T00:48:18.079Z,39.95
2023-02-16T00:50:44.783Z,41.53
2023-02-16T00:53:11.802Z,35.95
2023-02-16T00:55:40.622Z,39.42
2023-02-16T00:58:25.461Z,40.05
2023-02-16T01:01:18.758Z,38.17
2023-02-16T01:03:46.943Z,33.40
2023-02-16T01:06:33.734Z,38.40
2023-02-16T01:09:31.949Z,39.50
2023-02-16T01:12:01.205Z,38.75
2023-02-16T01:14:30.744Z,35.90
2023-02-16T01:17:01.455Z,37.55
2023-02-16T01:19:28.351Z,37.83
2023-02-16T01:21:56.113Z,37.67
2023-02-16T01:24:22.847Z,37.40
2023-02-16T01:26:51.972Z,37.55
2023-02-16T01:29:20.924Z,39.10
2023-02-16T01:31:48.419Z,37.55
2023-02-16T01:34:15.190Z,39.58
2023-02-16T01:36:48.298Z,38.63
2023-02-16T01:39:19.987Z,40.22
2023-02-16T01:42:01.946Z,41.45
2023-02-16T01:44:51.048Z,40.85
2023-02-16T01:47:46.716Z,36.00
2023-02-16T01:50:28.917Z,43.90
2023-02-16T01:53:00.344Z,45.08
2023-02-16T01:55:35.463Z,39.67
2023-02-16T01:58:32.699Z,41.60
2023-02-16T02:00:59.736Z,41.42
2023-02-16T02:03:48.262Z,40.17
2023-02-16T02:06:22.392Z,40.67
2023-02-16T02:11:28.669Z,35.95
2023-02-16T02:14:07.636Z,39.30
2023-02-16T02:16:34.445Z,39.13
2023-02-16T02:19:01.429Z,39.45
2023-02-16T02:22:18.863Z,41.35
2023-02-16T02:25:10.658Z,41.67
2023-02-16T02:27:47.214Z,39.45
2023-02-16T02:30:27.832Z,38.67
2023-02-16T02:33:18.485Z,35.95
2023-02-16T02:36:00.719Z,38.38
2023-02-16T02:38:57.183Z,42.17
2023-02-16T02:41:45.646Z,41.47
2023-02-16T02:44:17.755Z,38.25
2023-02-16T02:46:45.260Z,39.40
2023-02-16T02:49:11.963Z,39.65
2023-02-16T02:51:40.565Z,38.38
2023-02-16T02:54:30.153Z,38.95
2023-02-16T02:57:30.925Z,39.97
2023-02-16T03:00:31.076Z,40.25
2023-02-16T03:03:04.941Z,42.47
2023-02-16T03:05:34.574Z,39.50
2023-02-16T03:08:14.242Z,45.38
2023-02-16T03:11:22.109Z,41.30
2023-02-16T03:13:59.175Z,38.20
2023-02-16T03:16:34.115Z,44.55
2023-02-16T03:19:21.493Z,42.88
2023-02-16T03:22:07.919Z,38.85
2023-02-16T03:24:53.572Z,42.65
2023-02-16T03:27:50.289Z,43.05
2023-02-16T03:30:19.242Z,42.95
2023-02-16T03:32:48.018Z,42.63
2023-02-16T03:35:16.366Z,42.03
2023-02-16T03:37:44.891Z,46.17
2023-02-16T03:40:29.988Z,42.53
2023-02-16T03:42:58.893Z,39.78
2023-02-16T03:45:26.558Z,44.97
2023-02-16T03:47:53.897Z,44.33
2023-02-16T03:50:21.494Z,40.53
2023-02-16T03:52:49.323Z,42.80
2023-02-16T03:55:16.374Z,42.75
2023-02-16T03:57:43.222Z,41.83
2023-02-16T04:00:12.726Z,44.28
2023-02-16T04:02:39.846Z,43.22
2023-02-16T04:05:08.254Z,43.08
2023-02-16T04:07:36.023Z,41.10
2023-02-16T04:10:04.558Z,42.28
2023-02-16T04:12:38.725Z,46.97
2023-02-16T04:15:11.708Z,44.47
2023-02-16T04:17:38.521Z,41.85
2023-02-16T04:20:06.528Z,47.08
2023-02-16T04:22:33.334Z,55.40
2023-02-16T04:25:01.975Z,76.72
2023-02-16T04:27:31.002Z,50.70
2023-02-16T04:29:59.272Z,47.13
2023-02-16T04:32:27.290Z,44.72
2023-02-16T04:34:54.066Z,46.72
2023-02-16T04:37:23.856Z,41.38
2023-02-16T04:39:50.839Z,45.38
2023-02-16T04:42:18.212Z,43.90
2023-02-16T04:44:45.311Z,42.42
2023-02-16T04:47:12.037Z,44.65
2023-02-16T04:49:41.099Z,48.03
2023-02-16T04:52:10.367Z,42.08
2023-02-16T04:54:37.088Z,42.05
2023-02-16T04:57:03.882Z,47.13
2023-02-16T04:59:30.652Z,42.35
2023-02-16T05:01:58.806Z,41.67
2023-02-16T05:04:25.643Z,48.90
2023-02-16T05:06:53.123Z,45.50
2023-02-16T05:09:19.789Z,44.20
2023-02-16T05:12:07.879Z,49.47
2023-02-16T05:14:41.801Z,47.42
2023-02-16T05:17:10.359Z,43.90
2023-02-16T05:19:39.563Z,44.20
2023-02-16T05:22:06.932Z,44.55
2023-02-16T05:24:34.844Z,40.95
2023-02-16T05:27:06.757Z,42.40
2023-02-16T05:29:34.172Z,47.88
2023-02-16T05:32:04.580Z,45.53
2023-02-16T05:34:31.985Z,49.13
2023-02-16T05:36:58.761Z,46.65
2023-02-16T05:39:25.486Z,45.35
2023-02-16T05:41:52.175Z,46.47
2023-02-16T05:44:18.965Z,45.58
2023-02-16T05:46:49.575Z,42.53
2023-02-16T05:49:17.166Z,45.13
2023-02-16T05:51:45.371Z,42.25
2023-02-16T05:54:17.249Z,48.42
2023-02-16T05:56:49.498Z,44.53
2023-02-16T05:59:19.377Z,46.53
2023-02-16T06:01:50.419Z,43.08
2023-02-16T06:04:20.243Z,43.55
2023-02-16T06:06:47.504Z,41.78
2023-02-16T06:09:14.315Z,42.45
2023-02-16T06:11:43.570Z,44.42
2023-02-16T06:14:13.199Z,41.05
2023-02-16T06:16:41.827Z,43.10
2023-02-16T06:19:09.819Z,44.70
2023-02-16T06:21:39.064Z,44.67
2023-02-16T06:24:07.445Z,45.40
2023-02-16T06:26:34.698Z,45.00
2023-02-16T06:29:02.704Z,43.83
2023-02-16T06:31:30.959Z,40.85
2023-02-16T06:34:00.798Z,41.88
2023-02-16T06:36:28.776Z,44.15
2023-02-16T06:38:57.731Z,42.55
2023-02-16T06:41:37.945Z,44.17
2023-02-16T06:44:17.356Z,44.13
2023-02-16T06:49:34.325Z,44.03
2023-02-16T06:52:04.500Z,46.28
2023-02-16T06:54:31.269Z,40.08
2023-02-16T06:56:59.034Z,48.28
2023-02-16T06:59:25.758Z,43.47
2023-02-16T07:01:52.812Z,41.13
2023-02-16T07:04:19.686Z,43.45
2023-02-16T07:06:47.178Z,41.58
2023-02-16T07:09:14.421Z,45.85
2023-02-16T07:11:43.481Z,42.50
2023-02-16T07:14:12.288Z,43.03
2023-02-16T07:16:47.992Z,41.63
2023-02-16T07:27:39.920Z,46.38
2023-02-16T07:30:12.910Z,41.72
2023-02-16T07:32:43.820Z,43.85
2023-02-16T07:35:18.435Z,49.60
2023-02-16T07:37:47.754Z,45.17
2023-02-16T07:40:14.791Z,44.88
2023-02-16T07:42:51.849Z,49.45
2023-02-16T07:45:22.892Z,41.75
2023-02-16T07:47:51.640Z,45.50
2023-02-16T07:53:08.142Z,44.67
2023-02-16T07:55:46.309Z,45.35
2023-02-16T07:58:28.274Z,41.97
2023-02-16T08:01:09.655Z,44.17
2023-02-16T08:03:36.996Z,41.10
2023-02-16T08:06:06.201Z,45.55
2023-02-16T08:08:34.671Z,44.00
2023-02-16T08:11:15.963Z,45.30
2023-02-16T08:13:47.177Z,41.10
2023-02-16T08:16:19.741Z,44.20
2023-02-16T08:18:46.737Z,44.63
2023-02-16T08:21:21.400Z,43.88
2023-02-16T08:24:08.842Z,47.90
2023-02-16T08:26:41.488Z,43.88
2023-02-16T08:29:18.016Z,44.28
2023-02-16T08:31:49.615Z,46.13
2023-02-16T08:34:18.741Z,50.75
2023-02-16T08:36:50.166Z,45.10
2023-02-16T08:39:20.550Z,45.85
2023-02-16T08:41:50.651Z,38.50
2023-02-16T08:44:19.600Z,40.65
2023-02-16T08:46:48.714Z,43.45
2023-02-16T08:49:18.670Z,39.58
2023-02-16T08:51:48.565Z,41.75
2023-02-16T08:54:32.694Z,41.47
2023-02-16T08:57:07.304Z,40.80
2023-02-16T08:59:36.938Z,43.08
2023-02-16T09:02:16.007Z,36.00
2023-02-16T09:04:44.457Z,40.40
2023-02-16T09:10:02.280Z,43.65
2023-02-16T09:12:32.090Z,40.17
2023-02-16T09:15:02.079Z,41.72
2023-02-16T09:17:29.314Z,41.20
2023-02-16T09:19:56.774Z,42.28
2023-02-16T09:22:29.992Z,40.25
2023-02-16T09:24:56.630Z,43.13
2023-02-16T09:27:25.584Z,39.33
2023-02-16T09:29:53.001Z,38.53
2023-02-16T09:32:20.437Z,38.60
2023-02-16T09:34:50.095Z,36.25
2023-02-16T09:37:29.303Z,45.05
2023-02-16T09:40:04.914Z,41.60
2023-02-16T09:43:27.788Z,41.00
2023-02-16T09:46:00.698Z,40.92
2023-02-16T09:51:36.073Z,38.63
2023-02-16T10:00:55.228Z,39.33
2023-02-16T10:03:45.132Z,35.53
2023-02-16T10:06:55.949Z,38.08
2023-02-16T10:09:27.889Z,37.90
2023-02-16T10:12:26.133Z,40.05
2023-02-16T10:15:29.547Z,39.97
2023-02-16T10:18:03.346Z,33.35
2023-02-16T10:20:56.711Z,33.45
2023-02-16T10:23:51.179Z,33.97
2023-02-16T10:29:27.187Z,34.55
2023-02-16T10:32:02.592Z,35.58
2023-02-16T10:34:53.634Z,35.50
2023-02-16T10:37:57.203Z,37.70
2023-02-16T10:40:41.595Z,33.10
2023-02-16T10:43:27.189Z,33.90
2023-02-16T10:51:47.593Z,27.52
2023-02-16T10:54:37.093Z,29.17
2023-02-16T11:00:23.360Z,29.90
2023-02-16T11:03:04.056Z,32.42
2023-02-16T11:08:24.163Z,29.02
2023-02-16T11:11:18.875Z,31.42
2023-02-16T11:17:41.106Z,28.60
2023-02-16T11:20:13.385Z,30.50
2023-02-16T11:22:41.532Z,29.60
2023-02-16T11:25:25.673Z,31.25
2023-02-16T11:27:59.867Z,31.42
2023-02-16T11:30:38.848Z,31.63
2023-02-16T11:33:31.997Z,30.85
2023-02-16T11:36:11.939Z,25.30
2023-02-16T11:38:47.522Z,30.67
2023-02-16T11:41:58.109Z,29.10
2023-02-16T11:44:32.602Z,30.08
2023-02-16T11:47:30.347Z,30.70
2023-02-16T11:50:38.364Z,32.17
2023-02-16T11:53:25.099Z,27.80
2023-02-16T11:56:41.035Z,28.83
2023-02-16T12:02:30.142Z,28.85
2023-02-16T12:05:44.339Z,26.77
2023-02-16T12:11:19.056Z,29.33
2023-02-16T12:14:02.766Z,28.67
2023-02-16T12:16:52.720Z,25.15
2023-02-16T12:19:51.120Z,26.67
2023-02-16T12:22:48.378Z,24.85
2023-02-16T12:28:46.347Z,27.10
2023-02-16T12:31:42.978Z,30.15
2023-02-16T12:34:35.129Z,32.17
2023-02-16T12:37:24.568Z,28.25
2023-02-16T12:40:15.623Z,27.73
2023-02-16T12:43:10.642Z,28.92
2023-02-16T12:45:45.679Z,26.33
2023-02-16T12:48:52.336Z,24.80
2023-02-16T12:54:46.911Z,22.13
2023-02-16T13:07:40.109Z,27.30
2023-02-16T13:10:49.103Z,22.30
2023-02-16T13:16:51.727Z,20.58
2023-02-16T13:19:36.740Z,23.25
2023-02-16T13:39:22.546Z,25.02
2023-02-16T13:44:53.455Z,23.02
2023-02-16T13:47:42.116Z,23.63
2023-02-16T13:56:39.737Z,23.50
2023-02-16T14:07:59.060Z,22.17
2023-02-16T14:11:05.605Z,27.40
2023-02-16T14:13:48.148Z,26.55
2023-02-16T14:19:32.962Z,22.88
2023-02-16T14:22:18.647Z,19.92
2023-02-16T14:24:54.787Z,22.88
2023-02-16T14:28:08.662Z,24.42
2023-02-16T14:33:59.801Z,24.80
2023-02-16T14:42:16.123Z,17.50
2023-02-16T14:45:36.485Z,18.45
2023-02-16T14:55:23.102Z,17.67
2023-02-16T14:58:02.420Z,15.20
2023-02-16T15:00:53.910Z,14.50
2023-02-16T15:06:37.020Z,17.33
2023-02-16T15:09:22.231Z,16.25
2023-02-16T15:12:23.538Z,14.93
2023-02-16T15:15:02.723Z,18.13
2023-02-16T15:20:21.391Z,17.92
2023-02-16T15:23:01.441Z,16.67
2023-02-16T15:25:55.735Z,18.20
2023-02-16T15:28:35.710Z,20.23
2023-02-16T15:37:49.404Z,21.13
2023-02-16T15:40:26.858Z,16.23
2023-02-16T15:48:51.390Z,20.10
2023-02-16T15:51:41.817Z,19.75
2023-02-16T15:54:45.295Z,19.50
2023-02-16T16:00:36.572Z,22.17
2023-02-16T16:03:21.720Z,17.80
2023-02-16T16:08:50.853Z,21.40
2023-02-16T16:11:33.597Z,21.77
2023-02-16T16:14:04.658Z,21.75
2023-02-16T16:16:39.583Z,26.27
2023-02-16T16:19:35.181Z,40.90
2023-02-16T16:22:25.941Z,29.95
2023-02-16T16:24:53.049Z,37.50
2023-02-16T16:27:33.482Z,34.17
2023-02-16T16:30:34.793Z,24.65
2023-02-16T16:36:15.663Z,36.15
2023-02-16T16:47:51.777Z,26.58
2023-02-16T16:50:26.359Z,25.55
2023-02-16T16:53:03.984Z,24.90
2023-02-16T16:56:03.534Z,25.17
2023-02-16T17:01:17.903Z,27.98
2023-02-16T17:03:44.637Z,23.65
2023-02-16T17:06:14.402Z,26.70
2023-02-16T17:08:42.015Z,29.23
2023-02-16T17:11:25.843Z,23.73
2023-02-16T17:13:54.794Z,20.88
2023-02-16T17:16:36.620Z,22.23
2023-02-16T17:19:03.677Z,23.08
2023-02-16T17:21:32.489Z,25.83
2023-02-16T17:23:59.182Z,26.15
2023-02-16T17:26:27.417Z,23.48
2023-02-16T17:28:54.437Z,25.27
2023-02-16T17:31:22.551Z,25.42
2023-02-16T17:33:56.231Z,31.48
2023-02-16T17:36:24.909Z,26.23
2023-02-16T17:38:51.709Z,21.40
2023-02-16T17:41:25.862Z,19.80
2023-02-16T17:43:56.310Z,23.17
2023-02-16T17:46:23.482Z,25.45
2023-02-16T17:48:53.660Z,20.15
2023-02-16T17:51:23.895Z,19.77
2023-02-16T17:53:51.487Z,21.98
2023-02-16T17:56:21.738Z,20.75
2023-02-16T17:58:49.638Z,21.77
2023-02-16T18:01:18.495Z,23.20
2023-02-16T18:03:45.400Z,21.73
2023-02-16T18:06:17.248Z,24.35
2023-02-16T18:08:44.918Z,23.52
2023-02-16T18:11:14.636Z,20.58
2023-02-16T18:13:41.459Z,19.17
2023-02-16T18:16:12.139Z,23.05
2023-02-16T18:18:39.426Z,20.63
2023-02-16T18:21:07.752Z,23.80
2023-02-16T18:23:35.086Z,20.52
2023-02-16T18:26:02.871Z,24.23
2023-02-16T18:28:31.814Z,23.50
2023-02-16T18:30:59.611Z,20.80
2023-02-16T18:33:26.654Z,25.67
2023-02-16T18:35:57.835Z,23.88
2023-02-16T18:38:27.649Z,23.10
2023-02-16T18:40:57.269Z,20.85
2023-02-16T18:43:31.328Z,19.10
2023-02-16T18:48:29.124Z,23.70
2023-02-16T18:51:18.092Z,21.90
2023-02-16T18:53:52.309Z,24.08
2023-02-16T18:56:21.527Z,22.80
2023-02-16T18:58:54.524Z,22.48
2023-02-16T19:01:28.288Z,20.15
2023-02-16T19:03:57.581Z,19.27
2023-02-16T19:06:26.769Z,19.08
2023-02-16T19:08:56.021Z,19.67
2023-02-16T19:11:28.789Z,19.38
2023-02-16T19:13:56.936Z,21.63
2023-02-16T19:16:27.894Z,18.98
2023-02-16T19:19:01.133Z,17.58
2023-02-16T19:21:31.749Z,22.60
2023-02-16T19:24:01.237Z,20.73
2023-02-16T19:26:29.032Z,23.20
2023-02-16T19:28:57.053Z,21.25
2023-02-16T19:31:31.737Z,16.88
2023-02-16T19:34:09.471Z,16.67
2023-02-16T19:39:18.276Z,22.02
2023-02-16T19:41:46.005Z,18.85
2023-02-16T19:44:16.915Z,19.80
2023-02-16T19:46:45.822Z,19.50
2023-02-16T19:49:17.856Z,18.00
2023-02-16T19:51:49.122Z,18.67
2023-02-16T19:54:19.752Z,20.05
2023-02-16T19:56:47.639Z,20.45
2023-02-16T19:59:20.500Z,17.63
2023-02-16T20:01:49.408Z,17.65
2023-02-16T20:04:20.439Z,22.65
2023-02-16T20:06:50.348Z,22.85
2023-02-16T20:09:18.799Z,18.85
2023-02-16T20:11:50.896Z,17.40
2023-02-16T20:14:19.241Z,19.90
2023-02-16T20:16:54.587Z,17.48
2023-02-16T20:19:23.544Z,19.10
2023-02-16T20:21:52.768Z,19.92
2023-02-16T20:27:15.480Z,18.63
2023-02-16T20:29:44.986Z,18.35
2023-02-16T20:32:12.163Z,16.48
2023-02-16T20:34:41.211Z,17.25
2023-02-16T20:37:10.557Z,23.73
2023-02-16T20:39:37.684Z,20.83
2023-02-16T20:42:05.211Z,18.33
2023-02-16T20:44:40.529Z,23.48
2023-02-16T20:47:11.745Z,19.27
2023-02-16T20:49:40.888Z,20.92
2023-02-16T20:52:11.881Z,16.55
2023-02-16T20:54:43.705Z,19.27
2023-02-16T20:57:26.473Z,16.65
2023-02-16T20:59:56.162Z,15.97
2023-02-16T21:02:30.525Z,18.92
2023-02-16T21:04:57.587Z,18.23
2023-02-16T21:07:26.599Z,18.30
2023-02-16T21:10:02.218Z,14.88
2023-02-16T21:12:28.910Z,20.55
2023-02-16T21:14:55.753Z,17.13
2023-02-16T21:17:23.512Z,16.77
2023-02-16T21:19:50.214Z,16.27
2023-02-16T21:22:17.041Z,16.23
2023-02-16T21:24:44.894Z,17.95
2023-02-16T21:27:12.159Z,22.30
2023-02-16T21:29:39.765Z,15.65
2023-02-16T21:32:07.654Z,15.73
2023-02-16T21:34:35.012Z,16.23
2023-02-16T21:37:01.990Z,18.58
2023-02-16T21:39:47.489Z,18.15
2023-02-16T21:42:14.425Z,14.48
2023-02-16T21:44:49.982Z,16.75
2023-02-16T21:47:36.400Z,14.52
2023-02-16T21:50:03.060Z,14.30
2023-02-16T21:52:29.795Z,14.23
2023-02-16T21:55:27.187Z,13.60
2023-02-16T21:57:57.505Z,11.45
2023-02-16T22:00:26.668Z,10.10
2023-02-16T22:02:54.923Z,13.45
2023-02-16T22:05:21.650Z,10.93
2023-02-16T22:07:50.242Z,11.93
2023-02-16T22:10:17.845Z,11.57
2023-02-16T22:12:44.572Z,11.55
2023-02-16T22:15:11.274Z,13.00
2023-02-16T22:17:38.058Z,13.65
2023-02-16T22:20:06.139Z,17.30
2023-02-16T22:22:33.902Z,10.55
2023-02-16T22:25:02.281Z,11.85
2023-02-16T22:27:29.185Z,14.40
2023-02-16T22:29:55.944Z,14.93
2023-02-16T22:32:22.906Z,11.90
2023-02-16T22:34:51.959Z,14.55
2023-02-16T22:37:20.410Z,15.30
2023-02-16T22:39:49.124Z,12.95
2023-02-16T22:42:16.028Z,13.38
2023-02-16T22:44:42.733Z,13.95
2023-02-16T22:47:09.695Z,12.75
2023-02-16T22:49:37.349Z,11.15
2023-02-16T22:52:04.125Z,11.38
2023-02-16T22:54:31.209Z,11.88
2023-02-16T22:56:58.183Z,11.18
2023-02-16T22:59:26.327Z,12.95
2023-02-16T23:01:53.113Z,10.23
2023-02-16T23:04:19.923Z,10.25
2023-02-16T23:06:46.922Z,11.90
2023-02-16T23:09:20.023Z,11.52
2023-02-16T23:11:48.546Z,11.18
2023-02-16T23:14:20.879Z,13.70
2023-02-16T23:16:51.967Z,12.68
2023-02-16T23:19:24.544Z,12.10
2023-02-16T23:22:02.114Z,13.35
2023-02-16T23:24:28.940Z,14.13
2023-02-16T23:27:00.301Z,13.60
2023-02-16T23:29:26.997Z,11.25
2023-02-16T23:31:57.488Z,13.18
2023-02-16T23:34:24.542Z,11.40
2023-02-16T23:36:52.588Z,19.25
2023-02-16T23:39:19.724Z,11.77
2023-02-16T23:41:46.761Z,13.57
2023-02-16T23:44:14.476Z,14.27
2023-02-16T23:46:41.716Z,13.73
2023-02-16T23:49:08.826Z,12.75
2023-02-16T23:51:35.969Z,14.60
2023-02-16T23:54:03.670Z,14.27
2023-02-16T23:56:30.417Z,12.80
2023-02-16T23:58:59.525Z,13.35
